< < Back
Terminal Aerodrome Forecast


Current Version              Previous Versions:   1  2  3  4  5  6  7  8  9  

Terminal Aerodrome Forecast

086
FTUS42 KCHS 022323
TAFCHS
TAF
KCHS 022323Z 0300/0324 VRB03KT P6SM SKC
     FM031800 15008KT P6SM SCT060=

Latest METAR

320
SAUS80 KWBC 031000 RRD
MTRCHS
METAR KCHS 030956Z COR 00000KT 9SM BCFG CLR 13/12 A3012 RMK AO2 SLP199
T01330122


USA.gov is the U.S. government's official web portal to all federal, state and local government web resources and services.